Time;durP1;ratioP1;P1;durP2;ratioP2;P2;SDS_P1;SDS_P2;PMS_P1;PMS_P2;Temp;Humidity;BMP_temperature;BMP_pressure;BME280_temperature;BME280_humidity;BME280_pressure;Samples;Min_cycle;Max_cycle;Signal;HPM_P1;HPM_P2
2022/04/02 00:02:08;;;;;;;;;;;18.20;99.90;;;;;;5062623;28;20317;-72
2022/04/02 00:04:34;;;;;;;;;;;18.30;99.90;;;;;;5054025;28;20385;-72
2022/04/02 00:07:02;;;;;;;;;;;18.50;99.90;;;;;;5054175;28;19920;-72
2022/04/02 00:09:28;;;;;;;;;;;18.50;99.90;;;;;;5054239;28;20507;-72
2022/04/02 00:11:55;;;;;;;;;;;18.60;99.90;;;;;;5054339;28;19909;-72
2022/04/02 00:14:22;;;;;;;;;;;18.60;99.90;;;;;;5053845;28;19932;-73
2022/04/02 00:16:48;;;;;;;;;;;18.60;99.90;;;;;;5055217;28;19921;-72
2022/04/02 00:19:15;;;;;;;;;;;18.60;99.90;;;;;;5052244;28;20427;-72
2022/04/02 00:21:42;;;;;;;;;;;18.70;99.90;;;;;;5053127;28;19927;-72
2022/04/02 00:24:09;;;;;;;;;;;18.80;99.90;;;;;;5053856;28;19913;-72
2022/04/02 00:26:35;;;;;;;;;;;18.80;99.90;;;;;;5053607;28;19915;-72
2022/04/02 00:29:02;;;;;;;;;;;18.80;99.90;;;;;;5053793;28;19959;-72
2022/04/02 00:31:29;;;;;;;;;;;18.70;99.90;;;;;;5054068;28;19909;-72
2022/04/02 00:33:56;;;;;;;;;;;18.80;99.90;;;;;;5053726;28;19909;-72
2022/04/02 00:36:23;;;;;;;;;;;18.80;99.90;;;;;;5053660;28;20352;-72
2022/04/02 00:38:50;;;;;;;;;;;18.90;99.90;;;;;;5053661;28;19908;-72
2022/04/02 00:41:16;;;;;;;;;;;18.90;99.90;;;;;;5053549;28;19912;-72
2022/04/02 00:43:55;;;;;;;;;;;19.00;99.90;;;;;;5053456;28;19915;-72
2022/04/02 00:46:22;;;;;;;;;;;19.10;99.90;;;;;;5053347;28;19909;-72
2022/04/02 00:48:50;;;;;;;;;;;19.10;99.90;;;;;;5052672;28;19916;-72
2022/04/02 00:51:18;;;;;;;;;;;19.20;99.90;;;;;;5053429;28;20239;-71
2022/04/02 00:53:46;;;;;;;;;;;19.30;99.90;;;;;;5053601;28;19962;-72
2022/04/02 00:56:14;;;;;;;;;;;19.30;99.90;;;;;;5064068;28;19908;-72
2022/04/02 00:58:40;;;;;;;;;;;19.40;99.90;;;;;;5074347;28;19908;-72
2022/04/02 01:01:07;;;;;;;;;;;19.40;99.90;;;;;;5074225;28;20025;-72
2022/04/02 01:03:34;;;;;;;;;;;19.50;99.90;;;;;;5073669;28;19919;-72
2022/04/02 01:06:01;;;;;;;;;;;19.60;99.90;;;;;;5076073;28;20374;-70
2022/04/02 01:08:27;;;;;;;;;;;19.50;99.90;;;;;;5076478;28;19924;-70
2022/04/02 01:10:58;;;;;;;;;;;19.50;99.90;;;;;;5074304;28;19968;-70
2022/04/02 01:13:25;;;;;;;;;;;19.40;99.90;;;;;;5073956;28;20023;-71
2022/04/02 01:15:52;;;;;;;;;;;19.50;99.90;;;;;;5073925;28;20003;-70
2022/04/02 01:18:19;;;;;;;;;;;19.60;99.90;;;;;;5073049;28;19913;-70
2022/04/02 01:20:46;;;;;;;;;;;19.70;99.90;;;;;;5074205;28;19913;-70
2022/04/02 01:23:13;;;;;;;;;;;19.80;99.90;;;;;;5073841;28;19913;-70
2022/04/02 01:25:39;;;;;;;;;;;19.70;99.90;;;;;;5073693;28;19915;-70
2022/04/02 01:28:06;;;;;;;;;;;19.70;99.90;;;;;;5073590;28;19985;-70
2022/04/02 01:30:32;;;;;;;;;;;19.60;99.90;;;;;;5073636;28;20351;-72
2022/04/02 01:32:59;;;;;;;;;;;19.60;99.90;;;;;;5073357;28;20413;-70
2022/04/02 01:35:26;;;;;;;;;;;19.70;99.90;;;;;;5073442;28;19909;-70
2022/04/02 01:37:53;;;;;;;;;;;19.60;99.90;;;;;;5073441;28;19984;-70
2022/04/02 01:40:20;;;;;;;;;;;19.50;99.90;;;;;;5073289;28;19931;-70
2022/04/02 01:42:47;;;;;;;;;;;19.60;99.90;;;;;;5073582;28;19913;-70
2022/04/02 01:45:14;;;;;;;;;;;19.70;99.90;;;;;;5073375;28;19915;-70
2022/04/02 01:47:40;;;;;;;;;;;19.80;99.90;;;;;;5073243;28;19952;-70
2022/04/02 01:50:07;;;;;;;;;;;19.70;99.90;;;;;;5073486;28;20394;-70
2022/04/02 01:52:34;;;;;;;;;;;19.60;99.90;;;;;;5074622;28;19909;-70
2022/04/02 01:55:01;;;;;;;;;;;19.60;99.90;;;;;;5073259;28;19908;-71
2022/04/02 01:57:27;;;;;;;;;;;19.50;99.90;;;;;;5073285;28;19908;-70
2022/04/02 01:59:54;;;;;;;;;;;19.50;99.90;;;;;;5074859;28;19908;-70
2022/04/02 02:02:21;;;;;;;;;;;19.50;99.90;;;;;;5077218;28;20240;-70
2022/04/02 02:04:48;;;;;;;;;;;19.50;99.90;;;;;;5077168;28;19924;-70
2022/04/02 02:07:15;;;;;;;;;;;19.50;99.90;;;;;;5077305;28;19942;-70
2022/04/02 02:09:42;;;;;;;;;;;19.60;99.90;;;;;;5077273;28;19916;-71
2022/04/02 02:12:09;;;;;;;;;;;19.50;99.90;;;;;;5077310;28;19993;-71
2022/04/02 02:14:35;;;;;;;;;;;19.50;99.90;;;;;;5077143;28;20296;-71
2022/04/02 02:17:02;;;;;;;;;;;19.50;99.90;;;;;;5077089;28;19912;-71
2022/04/02 02:19:29;;;;;;;;;;;19.60;99.90;;;;;;5076856;28;19915;-71
2022/04/02 02:21:56;;;;;;;;;;;19.60;99.90;;;;;;5076991;28;19961;-71
2022/04/02 02:24:23;;;;;;;;;;;19.60;99.90;;;;;;5076688;28;19909;-71
2022/04/02 02:26:53;;;;;;;;;;;19.70;99.90;;;;;;5076826;28;19909;-71
2022/04/02 02:29:20;;;;;;;;;;;19.70;99.90;;;;;;5076722;28;20011;-71
2022/04/02 02:31:47;;;;;;;;;;;19.70;99.90;;;;;;5076833;28;20105;-71
2022/04/02 02:36:58;;;;;;;;;;;19.70;99.90;;;;;;5077267;28;19962;-71
2022/04/02 02:39:25;;;;;;;;;;;19.70;99.90;;;;;;5076580;28;19931;-71
2022/04/02 02:41:52;;;;;;;;;;;19.70;99.90;;;;;;5076733;28;19996;-71
2022/04/02 02:44:19;;;;;;;;;;;19.70;99.90;;;;;;5076232;28;20351;-71
2022/04/02 02:46:45;;;;;;;;;;;19.70;99.90;;;;;;5076116;28;19932;-71
2022/04/02 02:49:12;;;;;;;;;;;19.70;99.90;;;;;;5076291;28;20256;-71
2022/04/02 02:51:39;;;;;;;;;;;19.80;99.90;;;;;;5076399;28;19951;-71
2022/04/02 02:54:06;;;;;;;;;;;19.80;99.90;;;;;;5076276;28;19912;-71
2022/04/02 02:56:33;;;;;;;;;;;19.80;99.90;;;;;;5076242;28;19916;-71
2022/04/02 02:58:59;;;;;;;;;;;19.80;99.90;;;;;;5076068;28;19912;-71
2022/04/02 03:01:26;;;;;;;;;;;19.80;99.90;;;;;;5076229;28;19909;-71
2022/04/02 03:03:53;;;;;;;;;;;19.80;99.90;;;;;;5075986;28;20363;-71
2022/04/02 03:06:19;;;;;;;;;;;19.80;99.90;;;;;;5075691;28;19919;-71
2022/04/02 03:08:46;;;;;;;;;;;19.70;99.90;;;;;;5076059;28;20011;-71
2022/04/02 03:11:13;;;;;;;;;;;19.80;99.90;;;;;;5075561;28;19916;-71
2022/04/02 03:13:40;;;;;;;;;;;19.80;99.90;;;;;;5075985;28;19909;-71
2022/04/02 03:16:07;;;;;;;;;;;19.80;99.90;;;;;;5075763;28;20434;-70
2022/04/02 03:18:34;;;;;;;;;;;19.80;99.90;;;;;;5075684;28;20326;-70
2022/04/02 03:21:01;;;;;;;;;;;19.90;99.90;;;;;;5075647;28;19924;-70
2022/04/02 03:23:27;;;;;;;;;;;19.90;99.90;;;;;;5075630;28;19919;-70
2022/04/02 03:25:55;;;;;;;;;;;20.00;99.90;;;;;;5075537;28;19909;-70
2022/04/02 03:28:21;;;;;;;;;;;20.10;99.90;;;;;;5075221;28;19919;-71
2022/04/02 03:30:48;;;;;;;;;;;20.10;99.90;;;;;;5075509;28;19913;-71
2022/04/02 03:33:15;;;;;;;;;;;20.20;99.90;;;;;;5075599;28;19912;-71
2022/04/02 03:35:43;;;;;;;;;;;20.20;99.90;;;;;;5075563;28;19915;-71
2022/04/02 03:38:09;;;;;;;;;;;20.20;99.90;;;;;;5075382;28;19924;-71
2022/04/02 03:40:36;;;;;;;;;;;20.20;99.90;;;;;;5075718;28;19915;-70
2022/04/02 03:43:04;;;;;;;;;;;20.10;99.90;;;;;;5075798;28;19963;-71
2022/04/02 03:45:31;;;;;;;;;;;20.10;99.90;;;;;;5075720;28;19931;-70
2022/04/02 03:47:57;;;;;;;;;;;20.10;99.90;;;;;;5075174;28;20377;-70
2022/04/02 03:50:24;;;;;;;;;;;20.10;99.90;;;;;;5075026;28;19909;-70
2022/04/02 03:52:51;;;;;;;;;;;20.10;99.90;;;;;;5075204;28;19908;-70
2022/04/02 03:55:18;;;;;;;;;;;20.10;99.90;;;;;;5075237;28;19916;-70
2022/04/02 03:57:47;;;;;;;;;;;20.10;99.90;;;;;;5075178;28;20354;-70
2022/04/02 04:00:14;;;;;;;;;;;20.10;99.90;;;;;;5074828;28;19912;-70
2022/04/02 04:02:41;;;;;;;;;;;20.10;99.90;;;;;;5075048;28;19913;-70
2022/04/02 04:05:08;;;;;;;;;;;20.10;99.90;;;;;;5075127;28;19921;-70
2022/04/02 04:07:38;;;;;;;;;;;20.10;99.90;;;;;;5075208;28;20003;-70
2022/04/02 04:10:05;;;;;;;;;;;20.10;99.90;;;;;;5075097;28;19966;-70
2022/04/02 04:12:32;;;;;;;;;;;20.20;99.90;;;;;;5074824;28;19983;-71
2022/04/02 04:14:59;;;;;;;;;;;20.20;99.90;;;;;;5074750;28;19908;-71
2022/04/02 04:17:25;;;;;;;;;;;20.10;99.90;;;;;;5074660;28;19908;-71
2022/04/02 04:19:52;;;;;;;;;;;20.20;99.90;;;;;;5074526;28;19977;-71
2022/04/02 04:22:20;;;;;;;;;;;20.20;99.90;;;;;;5073331;28;19913;-71
2022/04/02 04:24:47;;;;;;;;;;;20.20;99.90;;;;;;5074650;28;19916;-71
2022/04/02 04:27:13;;;;;;;;;;;20.20;99.90;;;;;;5074514;28;19915;-71
2022/04/02 04:29:40;;;;;;;;;;;20.30;99.90;;;;;;5074489;28;19917;-72
2022/04/02 04:32:07;;;;;;;;;;;20.30;99.90;;;;;;5074216;28;20314;-71
2022/04/02 04:34:34;;;;;;;;;;;20.40;99.90;;;;;;5074516;28;19915;-71
2022/04/02 04:37:00;;;;;;;;;;;20.40;99.90;;;;;;5074409;28;19909;-71
2022/04/02 04:39:28;;;;;;;;;;;20.40;99.90;;;;;;5074249;28;20015;-71
2022/04/02 04:41:55;;;;;;;;;;;20.50;99.90;;;;;;5074126;28;19934;-71
2022/04/02 04:44:21;;;;;;;;;;;20.40;99.90;;;;;;5074036;28;19912;-72
2022/04/02 04:46:48;;;;;;;;;;;20.40;99.90;;;;;;5074134;28;20358;-72
2022/04/02 04:49:15;;;;;;;;;;;20.40;99.90;;;;;;5074176;28;19917;-71
2022/04/02 04:51:42;;;;;;;;;;;20.40;99.90;;;;;;5074184;28;19908;-71
2022/04/02 04:54:09;;;;;;;;;;;20.50;99.90;;;;;;5073869;28;19915;-71
2022/04/02 04:56:36;;;;;;;;;;;20.50;99.90;;;;;;5073841;28;19931;-71
2022/04/02 04:59:02;;;;;;;;;;;20.50;99.90;;;;;;5073857;28;19909;-71
2022/04/02 05:01:29;;;;;;;;;;;20.50;99.90;;;;;;5073781;28;19909;-71
2022/04/02 05:03:56;;;;;;;;;;;20.50;99.90;;;;;;5072364;28;20276;-71
2022/04/02 05:06:23;;;;;;;;;;;20.60;99.90;;;;;;5073660;28;19916;-71
2022/04/02 05:08:49;;;;;;;;;;;20.50;99.90;;;;;;5073806;28;19919;-71
2022/04/02 05:11:20;;;;;;;;;;;20.50;99.90;;;;;;5073067;28;21230;-72
2022/04/02 05:13:46;;;;;;;;;;;20.40;99.90;;;;;;5073600;28;19909;-69
2022/04/02 05:16:13;;;;;;;;;;;20.40;99.90;;;;;;5073277;28;19952;-70
2022/04/02 05:18:40;;;;;;;;;;;20.40;99.90;;;;;;5073726;28;20317;-70
2022/04/02 05:21:07;;;;;;;;;;;20.50;99.90;;;;;;5073476;28;20311;-70
2022/04/02 05:23:33;;;;;;;;;;;20.60;99.90;;;;;;5073431;28;19915;-70
2022/04/02 05:26:00;;;;;;;;;;;20.70;99.90;;;;;;5073395;28;20433;-71
2022/04/02 05:28:27;;;;;;;;;;;20.70;99.90;;;;;;5073101;28;19939;-70
2022/04/02 05:30:54;;;;;;;;;;;20.70;99.90;;;;;;5073365;28;20274;-70
2022/04/02 05:33:21;;;;;;;;;;;20.70;99.90;;;;;;5073107;28;19915;-70
2022/04/02 05:35:48;;;;;;;;;;;20.70;99.90;;;;;;5073140;28;20358;-71
2022/04/02 05:38:15;;;;;;;;;;;20.70;99.90;;;;;;5073249;28;19971;-71
2022/04/02 05:40:42;;;;;;;;;;;20.80;99.90;;;;;;5073447;28;19909;-71
2022/04/02 05:43:09;;;;;;;;;;;20.70;99.90;;;;;;5073230;28;19915;-70
2022/04/02 05:45:36;;;;;;;;;;;20.70;99.90;;;;;;5073209;28;19916;-70
2022/04/02 05:48:03;;;;;;;;;;;20.70;99.90;;;;;;5071790;28;19909;-70
2022/04/02 05:50:30;;;;;;;;;;;20.70;99.90;;;;;;5073125;28;19948;-72
2022/04/02 05:52:57;;;;;;;;;;;20.70;99.90;;;;;;5073223;28;20017;-71
2022/04/02 05:55:24;;;;;;;;;;;20.70;99.90;;;;;;5073148;28;19962;-71
2022/04/02 05:57:50;;;;;;;;;;;20.60;99.90;;;;;;5073091;28;20351;-71
2022/04/02 06:00:17;;;;;;;;;;;20.60;99.90;;;;;;5073128;28;19917;-71
2022/04/02 06:02:45;;;;;;;;;;;20.50;99.90;;;;;;5073012;28;19923;-71
2022/04/02 06:05:13;;;;;;;;;;;20.50;99.90;;;;;;5072812;28;19958;-71
2022/04/02 06:07:41;;;;;;;;;;;20.50;99.90;;;;;;5072822;28;19959;-71
2022/04/02 06:10:09;;;;;;;;;;;20.50;99.90;;;;;;5072940;28;20007;-71
2022/04/02 06:12:36;;;;;;;;;;;20.40;99.90;;;;;;5073237;28;19908;-71
2022/04/02 06:15:02;;;;;;;;;;;20.40;99.90;;;;;;5073159;28;19940;-72
2022/04/02 06:17:29;;;;;;;;;;;20.40;99.90;;;;;;5072933;28;19954;-71
2022/04/02 06:19:55;;;;;;;;;;;20.40;99.90;;;;;;5072998;28;20252;-72
2022/04/02 06:22:22;;;;;;;;;;;20.40;99.90;;;;;;5068909;28;19909;-71
2022/04/02 06:24:49;;;;;;;;;;;20.20;99.90;;;;;;5053072;28;19909;-71
2022/04/02 06:27:15;;;;;;;;;;;20.20;99.90;;;;;;5052813;28;20284;-71
2022/04/02 06:29:42;;;;;;;;;;;20.20;99.90;;;;;;5052780;28;19917;-71
2022/04/02 06:32:09;;;;;;;;;;;20.10;99.90;;;;;;5052012;28;20279;-71
2022/04/02 06:34:36;;;;;;;;;;;20.10;99.90;;;;;;5052902;28;19909;-71
2022/04/02 06:37:02;;;;;;;;;;;20.00;99.90;;;;;;5052754;28;20279;-72
2022/04/02 06:39:29;;;;;;;;;;;20.00;99.90;;;;;;5052880;28;19908;-71
2022/04/02 06:41:56;;;;;;;;;;;19.90;99.90;;;;;;5052879;28;19910;-71
2022/04/02 06:44:23;;;;;;;;;;;19.90;99.90;;;;;;5052557;28;19909;-71
2022/04/02 06:46:49;;;;;;;;;;;19.90;99.90;;;;;;5055544;28;19909;-72
2022/04/02 06:49:16;;;;;;;;;;;19.90;99.90;;;;;;5056536;28;19917;-70
2022/04/02 06:51:43;;;;;;;;;;;19.90;99.90;;;;;;5056379;28;19916;-69
2022/04/02 06:54:10;;;;;;;;;;;20.00;99.90;;;;;;5056204;28;19913;-69
2022/04/02 06:56:36;;;;;;;;;;;19.90;99.90;;;;;;5056081;28;19908;-69
2022/04/02 06:59:03;;;;;;;;;;;19.90;99.90;;;;;;5056135;28;19916;-69
2022/04/02 07:01:30;;;;;;;;;;;19.80;99.90;;;;;;5055686;28;19995;-69
2022/04/02 07:03:56;;;;;;;;;;;19.70;99.90;;;;;;5055834;28;19924;-70
2022/04/02 07:06:23;;;;;;;;;;;19.60;99.90;;;;;;5055855;28;19913;-69
2022/04/02 07:08:50;;;;;;;;;;;19.50;99.90;;;;;;5055919;28;19916;-70
2022/04/02 07:11:16;;;;;;;;;;;19.40;99.90;;;;;;5055953;28;19908;-69
2022/04/02 07:13:43;;;;;;;;;;;19.40;99.90;;;;;;5055506;28;19952;-69
2022/04/02 07:16:10;;;;;;;;;;;19.40;99.90;;;;;;5055457;28;19963;-69
2022/04/02 07:18:37;;;;;;;;;;;19.40;99.90;;;;;;5055891;28;19996;-69
2022/04/02 07:21:04;;;;;;;;;;;19.30;99.90;;;;;;5055740;28;19909;-70
2022/04/02 07:23:31;;;;;;;;;;;19.30;99.90;;;;;;5055686;28;19909;-69
2022/04/02 07:25:58;;;;;;;;;;;19.40;99.90;;;;;;5055679;28;20256;-69
2022/04/02 07:28:27;;;;;;;;;;;19.30;99.90;;;;;;5055484;28;20217;-69
2022/04/02 07:30:54;;;;;;;;;;;19.30;99.90;;;;;;5055431;28;19941;-69
2022/04/02 07:33:21;;;;;;;;;;;19.20;99.90;;;;;;5055563;28;19908;-69
2022/04/02 07:36:08;;;;;;;;;;;19.20;99.90;;;;;;5055566;28;19924;-69
2022/04/02 07:38:38;;;;;;;;;;;19.10;99.90;;;;;;5055685;28;19915;-70
2022/04/02 07:41:23;;;;;;;;;;;19.10;99.90;;;;;;5055608;28;19916;-70
2022/04/02 07:43:56;;;;;;;;;;;19.20;99.90;;;;;;5055474;28;20415;-70
2022/04/02 07:46:25;;;;;;;;;;;19.20;99.90;;;;;;5054956;28;19908;-70
2022/04/02 07:48:53;;;;;;;;;;;19.20;99.90;;;;;;5055282;28;19913;-70
2022/04/02 07:51:19;;;;;;;;;;;19.20;99.90;;;;;;5055330;28;19916;-70
2022/04/02 07:53:50;;;;;;;;;;;19.30;99.90;;;;;;5055335;28;19915;-70
2022/04/02 07:56:25;;;;;;;;;;;19.20;99.90;;;;;;5054676;28;19913;-70
2022/04/02 07:58:53;;;;;;;;;;;19.20;99.90;;;;;;5054673;28;20271;-70
2022/04/02 08:01:20;;;;;;;;;;;19.20;99.90;;;;;;5055040;28;19909;-70
2022/04/02 08:03:47;;;;;;;;;;;19.10;99.90;;;;;;5054973;28;19913;-70
2022/04/02 08:06:14;;;;;;;;;;;19.10;99.90;;;;;;5054715;28;19913;-70
2022/04/02 08:08:42;;;;;;;;;;;19.10;99.90;;;;;;5054881;28;19948;-70
2022/04/02 08:11:10;;;;;;;;;;;19.00;99.90;;;;;;5054990;28;19908;-70
2022/04/02 08:13:37;;;;;;;;;;;19.00;99.90;;;;;;5054786;28;20363;-70
2022/04/02 08:16:04;;;;;;;;;;;19.00;99.90;;;;;;5054059;28;19915;-70
2022/04/02 08:18:31;;;;;;;;;;;19.00;99.90;;;;;;5055208;28;19971;-70
2022/04/02 08:20:57;;;;;;;;;;;19.00;99.90;;;;;;5054276;28;19913;-71
2022/04/02 08:23:24;;;;;;;;;;;19.00;99.90;;;;;;5054507;28;19955;-71
2022/04/02 08:25:56;;;;;;;;;;;18.90;99.90;;;;;;5054639;28;20355;-70
2022/04/02 08:28:26;;;;;;;;;;;18.90;99.90;;;;;;5054274;28;20344;-71
2022/04/02 08:31:15;;;;;;;;;;;18.80;99.90;;;;;;5054268;28;19959;-71
2022/04/02 08:33:44;;;;;;;;;;;18.80;99.90;;;;;;5054725;28;19936;-71
2022/04/02 08:36:11;;;;;;;;;;;18.80;99.90;;;;;;5053714;28;19909;-71
2022/04/02 08:38:56;;;;;;;;;;;18.70;99.90;;;;;;5054409;28;19962;-70
2022/04/02 08:41:37;;;;;;;;;;;18.70;99.90;;;;;;5054283;28;19909;-70
2022/04/02 08:44:09;;;;;;;;;;;18.70;99.90;;;;;;5054256;28;19909;-70
2022/04/02 08:46:36;;;;;;;;;;;18.60;99.90;;;;;;5054178;28;19928;-70
2022/04/02 08:49:22;;;;;;;;;;;18.50;99.90;;;;;;5053581;28;19964;-70
2022/04/02 08:51:58;;;;;;;;;;;18.50;99.90;;;;;;5054140;28;19944;-70
2022/04/02 08:54:26;;;;;;;;;;;18.50;99.90;;;;;;5053907;28;20001;-70
2022/04/02 08:56:58;;;;;;;;;;;18.50;99.90;;;;;;5053964;28;19920;-70
2022/04/02 08:59:33;;;;;;;;;;;18.40;99.90;;;;;;5053797;28;19999;-70
2022/04/02 09:02:31;;;;;;;;;;;18.50;99.90;;;;;;5053863;28;20360;-71
2022/04/02 09:05:06;;;;;;;;;;;18.40;99.90;;;;;;5053122;28;19932;-70
2022/04/02 09:07:56;;;;;;;;;;;18.40;99.90;;;;;;5053863;28;19909;-70
2022/04/02 09:10:22;;;;;;;;;;;18.30;99.90;;;;;;5053738;28;19921;-70
2022/04/02 09:13:07;;;;;;;;;;;18.30;99.90;;;;;;5053815;28;19954;-70
2022/04/02 09:15:53;;;;;;;;;;;18.20;99.90;;;;;;5053601;28;19909;-70
2022/04/02 09:18:39;;;;;;;;;;;18.20;99.90;;;;;;5055479;28;20348;-70
2022/04/02 09:21:21;;;;;;;;;;;18.20;99.90;;;;;;5053653;28;19908;-70
2022/04/02 09:24:03;;;;;;;;;;;18.20;99.90;;;;;;5053625;28;19913;-70
2022/04/02 09:26:48;;;;;;;;;;;18.10;99.90;;;;;;5053546;28;19948;-70
2022/04/02 09:29:16;;;;;;;;;;;18.00;99.90;;;;;;5053358;28;20290;-70
2022/04/02 09:31:53;;;;;;;;;;;18.00;99.90;;;;;;5052053;28;19909;-70
2022/04/02 09:34:22;;;;;;;;;;;18.00;99.90;;;;;;5053396;28;19937;-70
2022/04/02 09:37:07;;;;;;;;;;;18.00;99.90;;;;;;5053505;28;19941;-69
2022/04/02 09:39:51;;;;;;;;;;;18.00;99.90;;;;;;5053459;28;19915;-69
2022/04/02 09:42:41;;;;;;;;;;;18.00;99.90;;;;;;5053203;28;19920;-69
2022/04/02 09:45:09;;;;;;;;;;;18.00;99.90;;;;;;5057036;28;19912;-70
2022/04/02 09:47:36;;;;;;;;;;;18.00;99.90;;;;;;5049867;28;19999;-70
2022/04/02 09:50:13;;;;;;;;;;;18.00;99.90;;;;;;5050243;28;20596;-70
2022/04/02 09:52:59;;;;;;;;;;;17.90;99.90;;;;;;5050295;28;19909;-70
2022/04/02 09:55:30;;;;;;;;;;;17.90;99.90;;;;;;5058777;28;19915;-70
2022/04/02 09:58:06;;;;;;;;;;;17.80;99.90;;;;;;5049881;28;19913;-70
2022/04/02 10:00:41;;;;;;;;;;;17.80;99.90;;;;;;5050053;28;20252;-71
2022/04/02 10:03:13;;;;;;;;;;;17.70;99.90;;;;;;5049633;28;19944;-71
2022/04/02 10:05:43;;;;;;;;;;;17.70;99.90;;;;;;5050098;28;19927;-71
2022/04/02 10:08:12;;;;;;;;;;;17.70;99.90;;;;;;5049869;28;20318;-70
2022/04/02 10:10:39;;;;;;;;;;;17.70;99.90;;;;;;5049993;28;19923;-70
2022/04/02 10:13:06;;;;;;;;;;;17.60;99.90;;;;;;5049904;28;19909;-71
2022/04/02 10:15:33;;;;;;;;;;;17.60;99.90;;;;;;5050039;28;19937;-70
2022/04/02 10:18:02;;;;;;;;;;;17.60;99.90;;;;;;5049975;28;19913;-70
2022/04/02 10:20:30;;;;;;;;;;;17.60;99.90;;;;;;5050756;28;20011;-70
2022/04/02 10:23:12;;;;;;;;;;;17.60;99.90;;;;;;5054348;28;20394;-70
2022/04/02 10:25:51;;;;;;;;;;;17.60;99.90;;;;;;5053752;28;19932;-70
2022/04/02 10:28:20;;;;;;;;;;;17.60;99.90;;;;;;5053566;28;19912;-70
2022/04/02 10:30:49;;;;;;;;;;;17.60;99.90;;;;;;5054078;28;19978;-70
2022/04/02 10:33:27;;;;;;;;;;;17.60;99.90;;;;;;5053485;28;19908;-71
2022/04/02 10:35:54;;;;;;;;;;;17.60;99.90;;;;;;5053994;28;19920;-71
2022/04/02 10:38:40;;;;;;;;;;;17.50;99.90;;;;;;5053155;28;20348;-71
2022/04/02 10:41:11;;;;;;;;;;;17.50;99.90;;;;;;5053799;28;19909;-70
2022/04/02 10:44:04;;;;;;;;;;;17.50;99.90;;;;;;5053726;28;19920;-70
2022/04/02 10:46:32;;;;;;;;;;;17.40;99.90;;;;;;5079520;28;19967;-70
2022/04/02 10:49:07;;;;;;;;;;;17.50;99.90;;;;;;5053510;28;19916;-70
2022/04/02 10:51:38;;;;;;;;;;;17.40;99.90;;;;;;5053314;28;19909;-70
2022/04/02 10:54:10;;;;;;;;;;;17.40;99.90;;;;;;5053807;28;20477;-70
2022/04/02 10:56:48;;;;;;;;;;;17.40;99.90;;;;;;5053508;28;19962;-70
2022/04/02 10:59:16;;;;;;;;;;;17.30;99.90;;;;;;5053364;28;19908;-70
2022/04/02 11:01:46;;;;;;;;;;;17.30;99.90;;;;;;5052665;28;19913;-70
2022/04/02 11:04:36;;;;;;;;;;;17.30;99.90;;;;;;5052616;28;19921;-70
2022/04/02 11:07:03;;;;;;;;;;;17.40;99.90;;;;;;5061023;28;19913;-70
2022/04/02 11:09:36;;;;;;;;;;;17.40;99.90;;;;;;5053249;28;19921;-70
2022/04/02 11:12:15;;;;;;;;;;;17.40;99.90;;;;;;5053282;28;19913;-70
2022/04/02 11:14:43;;;;;;;;;;;17.30;99.90;;;;;;5053129;28;20341;-70
2022/04/02 11:17:27;;;;;;;;;;;17.30;99.90;;;;;;5052417;28;19909;-71
2022/04/02 11:20:01;;;;;;;;;;;17.30;99.90;;;;;;5053158;28;19913;-71
2022/04/02 11:22:30;;;;;;;;;;;17.30;99.90;;;;;;5052816;28;19955;-70
2022/04/02 11:25:03;;;;;;;;;;;17.20;99.90;;;;;;5053093;28;20424;-70
2022/04/02 11:27:30;;;;;;;;;;;17.20;99.90;;;;;;5052920;28;19916;-70
2022/04/02 11:30:01;;;;;;;;;;;17.20;99.90;;;;;;5052438;28;19924;-69
2022/04/02 11:32:28;;;;;;;;;;;17.20;99.90;;;;;;5051855;28;19979;-71
2022/04/02 11:34:55;;;;;;;;;;;17.20;99.90;;;;;;5052775;28;19909;-70
2022/04/02 11:37:27;;;;;;;;;;;17.10;99.90;;;;;;5052785;28;19912;-70
2022/04/02 11:39:57;;;;;;;;;;;17.10;99.90;;;;;;5052807;28;19966;-70
2022/04/02 11:42:25;;;;;;;;;;;17.00;99.90;;;;;;5052160;28;20441;-70
2022/04/02 11:44:52;;;;;;;;;;;17.00;99.90;;;;;;5052373;28;19959;-70
2022/04/02 11:47:29;;;;;;;;;;;17.00;99.90;;;;;;5052013;28;19908;-70
2022/04/02 11:50:06;;;;;;;;;;;16.90;99.90;;;;;;5052480;28;19917;-70
2022/04/02 11:52:53;;;;;;;;;;;16.90;99.90;;;;;;5052664;28;20001;-70
2022/04/02 11:55:20;;;;;;;;;;;16.90;99.90;;;;;;5052244;28;19909;-70
2022/04/02 11:58:16;;;;;;;;;;;16.90;99.90;;;;;;5051063;28;20417;-70
2022/04/02 12:00:43;;;;;;;;;;;16.90;99.90;;;;;;5055390;28;20320;-70
2022/04/02 12:03:30;;;;;;;;;;;16.80;99.90;;;;;;5050740;28;19965;-70
2022/04/02 12:06:09;;;;;;;;;;;16.90;99.90;;;;;;5051302;28;19971;-70
2022/04/02 12:08:35;;;;;;;;;;;16.90;99.90;;;;;;5051821;28;20382;-70
2022/04/02 12:11:03;;;;;;;;;;;16.80;99.90;;;;;;5052176;28;20386;-70
2022/04/02 12:13:30;;;;;;;;;;;16.80;99.90;;;;;;5052014;28;19908;-71
2022/04/02 12:16:16;;;;;;;;;;;16.80;99.90;;;;;;5051642;28;20330;-70
2022/04/02 12:18:54;;;;;;;;;;;16.80;99.90;;;;;;5051965;28;19912;-70
2022/04/02 12:21:31;;;;;;;;;;;16.80;99.90;;;;;;5051775;28;19937;-70
2022/04/02 12:23:59;;;;;;;;;;;16.80;99.90;;;;;;5051981;28;19966;-71
2022/04/02 12:26:27;;;;;;;;;;;16.90;99.90;;;;;;5051685;28;19952;-71
2022/04/02 12:28:58;;;;;;;;;;;16.80;99.90;;;;;;5051560;28;19927;-71
2022/04/02 12:31:27;;;;;;;;;;;16.90;99.90;;;;;;5051659;28;20282;-70
2022/04/02 12:33:55;;;;;;;;;;;16.90;99.90;;;;;;5051901;28;19939;-71
2022/04/02 12:36:32;;;;;;;;;;;16.90;99.90;;;;;;5051256;28;20291;-71
2022/04/02 12:39:03;;;;;;;;;;;17.00;99.90;;;;;;5051688;28;19920;-70
2022/04/02 12:41:30;;;;;;;;;;;17.00;99.90;;;;;;5051675;28;19909;-71
2022/04/02 12:44:01;;;;;;;;;;;17.00;99.90;;;;;;5050843;28;19966;-70
2022/04/02 12:46:28;;;;;;;;;;;17.00;99.90;;;;;;5049291;28;19916;-70
2022/04/02 12:48:55;;;;;;;;;;;17.00;99.90;;;;;;5051520;28;20390;-72
2022/04/02 12:51:25;;;;;;;;;;;16.90;99.90;;;;;;5051542;28;19909;-71
2022/04/02 12:53:59;;;;;;;;;;;16.90;99.90;;;;;;5051447;28;19948;-70
2022/04/02 12:56:28;;;;;;;;;;;16.90;99.90;;;;;;5051146;28;20016;-70
2022/04/02 12:58:55;;;;;;;;;;;16.90;99.90;;;;;;5051295;28;19916;-71
2022/04/02 13:01:25;;;;;;;;;;;16.90;99.90;;;;;;5050118;28;20260;-70
2022/04/02 13:03:59;;;;;;;;;;;16.80;99.90;;;;;;5051001;28;19920;-70
2022/04/02 13:06:27;;;;;;;;;;;16.80;99.90;;;;;;5051039;28;19915;-71
2022/04/02 13:09:06;;;;;;;;;;;16.80;99.90;;;;;;5050984;28;19944;-70
2022/04/02 13:11:39;;;;;;;;;;;16.80;99.90;;;;;;5050911;28;19962;-70
2022/04/02 13:14:12;;;;;;;;;;;16.80;99.90;;;;;;5050796;28;20389;-70
2022/04/02 13:16:40;;;;;;;;;;;16.80;99.90;;;;;;5050500;28;19956;-70
2022/04/02 13:22:16;;;;;;;;;;;16.80;99.90;;;;;;5084239;28;19962;-70
2022/04/02 13:24:53;;;;;;;;;;;16.90;99.90;;;;;;5091890;28;19908;-70
2022/04/02 13:27:32;;;;;;;;;;;16.90;99.90;;;;;;5091572;28;19927;-70
2022/04/02 13:30:17;;;;;;;;;;;16.90;99.90;;;;;;5091537;28;19920;-70
2022/04/02 13:32:47;;;;;;;;;;;16.90;99.90;;;;;;5091784;28;19912;-70
2022/04/02 13:35:30;;;;;;;;;;;16.90;99.90;;;;;;5091719;28;19920;-70
2022/04/02 13:38:16;;;;;;;;;;;16.90;99.90;;;;;;5091636;28;19919;-70
2022/04/02 13:40:45;;;;;;;;;;;16.90;99.90;;;;;;5079699;28;19971;-70
2022/04/02 13:43:14;;;;;;;;;;;16.80;99.90;;;;;;5091434;28;19919;-71
2022/04/02 13:45:42;;;;;;;;;;;16.80;99.90;;;;;;5091555;28;20476;-70
2022/04/02 13:48:10;;;;;;;;;;;16.90;99.90;;;;;;5091136;28;19957;-71
2022/04/02 13:50:38;;;;;;;;;;;16.90;99.90;;;;;;5091886;28;19939;-70
2022/04/02 13:53:08;;;;;;;;;;;16.90;99.90;;;;;;5093609;28;20422;-70
2022/04/02 13:55:38;;;;;;;;;;;16.90;99.90;;;;;;5093490;28;19965;-70
2022/04/02 13:58:09;;;;;;;;;;;16.90;99.90;;;;;;5093405;28;19951;-70
2022/04/02 14:00:41;;;;;;;;;;;16.90;99.90;;;;;;5093398;28;19961;-70
2022/04/02 14:03:09;;;;;;;;;;;17.00;99.90;;;;;;5093395;28;19996;-70
2022/04/02 14:05:40;;;;;;;;;;;16.90;99.90;;;;;;5093456;28;19920;-70
2022/04/02 14:08:11;;;;;;;;;;;16.90;99.90;;;;;;5093145;28;19963;-70
2022/04/02 14:10:39;;;;;;;;;;;16.80;99.90;;;;;;5093440;28;19923;-70
2022/04/02 14:13:10;;;;;;;;;;;16.80;99.90;;;;;;5093200;28;19912;-70
2022/04/02 14:15:39;;;;;;;;;;;16.70;99.90;;;;;;5093376;28;19912;-70
2022/04/02 14:18:08;;;;;;;;;;;16.70;99.90;;;;;;5093394;28;19912;-70
2022/04/02 14:20:35;;;;;;;;;;;16.60;99.90;;;;;;5093280;28;19912;-70
2022/04/02 14:23:05;;;;;;;;;;;16.60;99.90;;;;;;5093279;28;19908;-70
2022/04/02 14:26:06;;;;;;;;;;;16.50;99.90;;;;;;5093363;28;20362;-70
2022/04/02 14:28:52;;;;;;;;;;;16.50;99.90;;;;;;5070634;28;19995;-70
2022/04/02 14:31:27;;;;;;;;;;;16.50;99.90;;;;;;5091472;28;19923;-70
2022/04/02 14:34:00;;;;;;;;;;;16.50;99.90;;;;;;5093115;28;20325;-70
2022/04/02 14:36:27;;;;;;;;;;;16.60;99.90;;;;;;5092909;28;20434;-70
2022/04/02 14:39:11;;;;;;;;;;;16.60;99.90;;;;;;5093267;28;19961;-70